Iki Airport
RJDB : now visible

Airfield :











YOU CAN JOIN US ON...

 
LOGIN :

Register | Disclaimer

   EN    FR    IT 

 









Legend :    VFR   Marginal VFR   IFR   Intensive IFR   Very Intensive IFR
Visi :
Ceiling :
>= 8 km
>= 3000ft
5 to 8 km
1000 to 3000 ft
1500m to 5 km
500 to 1000 ft
800 to 1500m
200 to 500 ft
< 800m
< 200 ft
Symbols :   Thunderstorms  Fog  Heavy snow  Heavy precipitations  Wind > 20 kt






- Airport Elevation : 41 ft
- IATA code : IKI


RJDB - Iki

CURRENT METAR :
  • 200440Z AUTO 13009KT 100V170 5000 RA BR FEW020 SCT031 BKN060 16/14 Q1011 RMK A2985 RI005

EXPIRED METARs :
  • 200421Z AUTO 14009KT 090V170 9999 RA FEW020 SCT060 BKN070 16/14 Q1010 RMK A2984 RI004 P/FR
  • 200415Z AUTO 15011KT 4000 RA BR FEW023 SCT050 BKN070 16/14 Q1011 RMK A2986 RI005
  • 200400Z AUTO 16011KT 9000 RA FEW016 BKN070 BKN080 16/14 Q1011
  • 200343Z AUTO 18015KT 6000 RA FEW016 SCT050 BKN070 16/13 Q1011 RMK A2988 RI004
  • 200319Z AUTO 17014KT 6000 RA SCT031 BKN050 BKN080 18/15 Q1011 RMK A2987 RI005
  • 200300Z AUTO 16013KT 9999 -RA FEW047 SCT090 BKN100 18/14 Q1011
  • 200200Z AUTO 18007KT 9999 -RA FEW032 BKN110 OVC120 18/14 Q1012
  • 200100Z AUTO 19005KT 170V230 9999 NSC 19/13 Q1012
  • 200000Z AUTO 19005KT 160V230 9999 NSC 18/13 Q1011

TAF N/A
RJJJ FIR / Asia



MET'MAP, your aeronautical weather chart ! - Copyright ORBIFLY December 2007 - Disclaimer

ORBIFLY MET'MAP TEAM :

Programming & Development : Alexandra Zaïnal
Original concept : Baudouin d'Aumeries
Technical & hardware support : Manuel Goepfert
Assistance : Marc-Olivier Méhu




SOURCES & CREDITS :

   NOAA       Earth
Advisory